Terminal Aerodrome Forecast
Issued by NWS Sterling, VA

Home | Current Version | Previous Version | Text Only | Print | Product List | Glossary On
Versions: 1 2 3 4 5 6 7 8 9 10 11 12 13 14 15 16 17 18 19 20 21 22 23 24
000
FTUS41 KLWX 290540
TAFIAD
TAF
KIAD 290540Z 2906/3012 VRB03KT P6SM VCSH SCT060 BKN100
     FM290900 VRB04KT 4SM BR SCT015 BKN070
     FM291200 07006KT P6SM SCT030 BKN090
     FM291900 15008KT P6SM VCTS SCT040CB BKN100
     FM300100 VRB05KT P6SM SCT050=

USA.gov is the U.S. government's official web portal to all federal, state and local government web resources and services.